createdAt,value
2022-10-05T00:00:23.609Z,1016.35
2022-10-05T00:01:23.636Z,1016.38
2022-10-05T00:02:23.574Z,1016.36
2022-10-05T00:03:23.570Z,1016.39
2022-10-05T00:04:23.555Z,1016.38
2022-10-05T00:05:23.700Z,1016.32
2022-10-05T00:06:23.542Z,1016.31
2022-10-05T00:07:23.492Z,1016.30
2022-10-05T00:08:23.494Z,1016.28
2022-10-05T00:09:23.460Z,1016.30
2022-10-05T00:10:23.503Z,1016.26
2022-10-05T00:11:23.452Z,1016.27
2022-10-05T00:12:23.430Z,1016.21
2022-10-05T00:13:23.480Z,1016.21
2022-10-05T00:14:23.430Z,1016.19
2022-10-05T00:15:23.397Z,1016.22
2022-10-05T00:16:23.481Z,1016.13
2022-10-05T00:17:23.391Z,1016.21
2022-10-05T00:18:23.362Z,1016.15
2022-10-05T00:19:23.327Z,1016.25
2022-10-05T00:20:23.348Z,1016.10
2022-10-05T00:21:23.319Z,1016.16
2022-10-05T00:22:23.322Z,1016.17
2022-10-05T00:23:23.298Z,1016.12
2022-10-05T00:25:39.505Z,1016.10
2022-10-05T00:26:39.551Z,1016.15
2022-10-05T00:27:40.192Z,1016.16
2022-10-05T00:28:42.192Z,1016.11
2022-10-05T00:29:39.428Z,1016.12
2022-10-05T00:30:39.475Z,1016.12
2022-10-05T00:31:39.435Z,1016.13
2022-10-05T00:32:39.403Z,1016.12
2022-10-05T00:33:39.379Z,1016.11
2022-10-05T00:34:39.362Z,1016.09
2022-10-05T00:35:39.414Z,1016.06
2022-10-05T00:36:39.345Z,1016.09
2022-10-05T00:37:39.342Z,1016.02
2022-10-05T00:38:39.386Z,1016.04
2022-10-05T00:39:39.313Z,1016.06
2022-10-05T00:40:39.314Z,1016.12
2022-10-05T00:41:39.286Z,1016.01
2022-10-05T00:42:39.284Z,1016.04
2022-10-05T00:43:39.248Z,1016.07
2022-10-05T00:44:39.260Z,1016.05
2022-10-05T00:45:39.314Z,1016.07
2022-10-05T00:46:39.230Z,1016.04
2022-10-05T00:47:39.210Z,1016.03
2022-10-05T00:48:39.178Z,1015.97
2022-10-05T00:49:39.168Z,1015.97
2022-10-05T00:50:39.178Z,1016.02
2022-10-05T00:51:39.142Z,1015.95
2022-10-05T00:52:39.141Z,1016.00
2022-10-05T00:53:39.141Z,1016.03
2022-10-05T00:54:39.136Z,1016.05
2022-10-05T00:55:39.106Z,1016.02
2022-10-05T00:56:39.068Z,1016.07
2022-10-05T00:57:39.065Z,1016.03
2022-10-05T00:58:39.047Z,1016.06
2022-10-05T00:59:39.058Z,1016.02
2022-10-05T01:00:39.059Z,1016.09
2022-10-05T01:01:39.077Z,1016.04
2022-10-05T01:02:39.063Z,1016.07
2022-10-05T01:03:38.998Z,1016.05
2022-10-05T01:04:38.964Z,1016.07
2022-10-05T01:05:38.979Z,1016.03
2022-10-05T01:06:38.948Z,1016.08
2022-10-05T01:07:38.940Z,1016.08
2022-10-05T01:08:38.929Z,1016.06
2022-10-05T01:09:38.905Z,1016.02
2022-10-05T01:10:38.901Z,1016.02
2022-10-05T01:11:38.883Z,1016.02
2022-10-05T01:12:38.862Z,1016.02
2022-10-05T01:13:38.846Z,1015.99
2022-10-05T01:14:38.851Z,1016.03
2022-10-05T01:15:38.836Z,1016.07
2022-10-05T01:16:38.888Z,1016.00
2022-10-05T01:17:38.805Z,1016.04
2022-10-05T01:18:38.796Z,1016.03
2022-10-05T01:19:38.774Z,1016.06
2022-10-05T01:20:38.764Z,1016.04
2022-10-05T01:21:38.755Z,1016.09
2022-10-05T01:22:38.780Z,1016.07
2022-10-05T01:23:38.714Z,1016.00
2022-10-05T01:24:38.743Z,1016.05
2022-10-05T01:25:38.703Z,1015.98
2022-10-05T01:26:38.689Z,1016.02
2022-10-05T01:27:38.668Z,1016.02
2022-10-05T01:28:38.754Z,1015.98
2022-10-05T01:29:38.653Z,1015.95
2022-10-05T01:30:38.639Z,1015.98
2022-10-05T01:31:38.677Z,1015.93
2022-10-05T01:32:38.614Z,1015.93
2022-10-05T01:33:40.597Z,1015.99
2022-10-05T01:34:38.572Z,1015.97
2022-10-05T01:35:38.577Z,1015.93
2022-10-05T01:36:38.569Z,1016.01
2022-10-05T01:37:38.553Z,1015.95
2022-10-05T01:38:38.545Z,1016.01
2022-10-05T01:39:38.503Z,1015.98
2022-10-05T01:40:38.489Z,1015.96
2022-10-05T01:41:38.524Z,1016.03
2022-10-05T01:42:38.470Z,1015.99
2022-10-05T01:43:38.452Z,1015.89
2022-10-05T01:44:38.455Z,1015.90
2022-10-05T01:45:38.449Z,1015.89
2022-10-05T01:46:38.434Z,1015.93
2022-10-05T01:47:38.416Z,1015.93
2022-10-05T01:48:38.395Z,1015.88
2022-10-05T01:49:38.376Z,1015.93
2022-10-05T01:50:38.395Z,1015.85
2022-10-05T01:51:38.374Z,1015.89
2022-10-05T01:52:38.329Z,1015.85
2022-10-05T01:53:38.346Z,1015.87
2022-10-05T01:54:38.334Z,1015.81
2022-10-05T01:55:38.300Z,1015.86
2022-10-05T01:56:38.304Z,1015.77
2022-10-05T01:57:38.278Z,1015.80
2022-10-05T01:58:38.271Z,1015.82
2022-10-05T01:59:38.257Z,1015.70
2022-10-05T02:00:38.235Z,1015.78
2022-10-05T02:01:38.275Z,1015.75
2022-10-05T02:02:38.300Z,1015.78
2022-10-05T02:03:38.213Z,1015.75
2022-10-05T02:05:00.965Z,1015.72
2022-10-05T02:05:39.204Z,1015.72
2022-10-05T02:06:38.183Z,1015.76
2022-10-05T02:07:38.135Z,1015.71
2022-10-05T02:08:38.143Z,1015.71
2022-10-05T02:09:38.115Z,1015.67
2022-10-05T02:10:38.111Z,1015.59
2022-10-05T02:11:38.133Z,1015.56
2022-10-05T02:12:38.072Z,1015.59
2022-10-05T02:13:38.088Z,1015.55
2022-10-05T02:14:38.048Z,1015.48
2022-10-05T02:15:38.135Z,1015.56
2022-10-05T02:16:38.016Z,1015.57
2022-10-05T02:17:38.015Z,1015.60
2022-10-05T02:18:37.997Z,1015.50
2022-10-05T02:19:37.999Z,1015.57
2022-10-05T02:20:37.973Z,1015.52
2022-10-05T02:21:37.956Z,1015.56
2022-10-05T02:22:37.967Z,1015.59
2022-10-05T02:23:37.926Z,1015.54
2022-10-05T02:24:37.919Z,1015.60
2022-10-05T02:25:37.920Z,1015.57
2022-10-05T02:26:37.900Z,1015.58
2022-10-05T02:27:37.901Z,1015.55
2022-10-05T02:28:37.922Z,1015.59
2022-10-05T02:29:37.879Z,1015.58
2022-10-05T02:30:37.840Z,1015.60
2022-10-05T02:31:37.862Z,1015.60
2022-10-05T02:32:37.829Z,1015.64
2022-10-05T02:33:37.819Z,1015.58
2022-10-05T02:34:37.774Z,1015.63
2022-10-05T02:35:37.787Z,1015.64
2022-10-05T02:36:37.767Z,1015.64
2022-10-05T02:37:37.755Z,1015.66
2022-10-05T02:38:37.724Z,1015.66
2022-10-05T02:39:37.744Z,1015.69
2022-10-05T02:40:37.708Z,1015.66
2022-10-05T02:41:37.717Z,1015.69
2022-10-05T02:42:37.677Z,1015.67
2022-10-05T02:43:37.672Z,1015.63
2022-10-05T02:44:37.643Z,1015.65
2022-10-05T02:45:37.733Z,1015.61
2022-10-05T02:46:37.613Z,1015.59
2022-10-05T02:47:37.619Z,1015.64
2022-10-05T02:48:37.603Z,1015.62
2022-10-05T02:49:37.582Z,1015.59
2022-10-05T02:50:37.579Z,1015.59
2022-10-05T02:51:37.571Z,1015.61
2022-10-05T02:52:37.533Z,1015.58
2022-10-05T02:53:37.556Z,1015.61
2022-10-05T02:54:37.535Z,1015.58
2022-10-05T02:55:37.515Z,1015.56
2022-10-05T02:56:37.504Z,1015.55
2022-10-05T02:57:37.478Z,1015.52
2022-10-05T02:58:37.490Z,1015.50
2022-10-05T02:59:37.463Z,1015.56
2022-10-05T03:00:37.431Z,1015.56
2022-10-05T03:01:37.493Z,1015.55
2022-10-05T03:02:37.425Z,1015.49
2022-10-05T03:03:37.412Z,1015.50
2022-10-05T03:04:37.415Z,1015.46
2022-10-05T03:05:37.473Z,1015.48
2022-10-05T03:06:37.377Z,1015.47
2022-10-05T03:07:37.340Z,1015.42
2022-10-05T03:08:37.360Z,1015.43
2022-10-05T03:09:37.315Z,1015.43
2022-10-05T03:10:37.316Z,1015.41
2022-10-05T03:11:37.290Z,1015.42
2022-10-05T03:12:37.292Z,1015.39
2022-10-05T03:13:37.283Z,1015.45
2022-10-05T03:14:37.261Z,1015.43
2022-10-05T03:15:37.297Z,1015.37
2022-10-05T03:16:37.233Z,1015.38
2022-10-05T03:17:37.219Z,1015.42
2022-10-05T03:18:37.217Z,1015.45
2022-10-05T03:19:37.198Z,1015.41
2022-10-05T03:20:37.179Z,1015.45
2022-10-05T03:21:37.171Z,1015.43
2022-10-05T03:22:37.162Z,1015.41
2022-10-05T03:23:37.150Z,1015.36
2022-10-05T03:24:37.160Z,1015.41
2022-10-05T03:25:37.109Z,1015.38
2022-10-05T03:26:37.112Z,1015.32
2022-10-05T03:27:37.098Z,1015.31
2022-10-05T03:28:37.152Z,1015.33
2022-10-05T03:29:37.082Z,1015.35
2022-10-05T03:30:37.062Z,1015.31
2022-10-05T03:31:37.113Z,1015.30
2022-10-05T03:32:37.015Z,1015.24
2022-10-05T03:33:37.017Z,1015.30
2022-10-05T03:34:37.013Z,1015.28
2022-10-05T03:35:36.997Z,1015.25
2022-10-05T03:36:36.998Z,1015.24
2022-10-05T03:37:36.947Z,1015.32
2022-10-05T03:38:36.938Z,1015.31
2022-10-05T03:39:36.938Z,1015.30
2022-10-05T03:40:36.954Z,1015.24
2022-10-05T03:41:36.895Z,1015.25
2022-10-05T03:42:36.910Z,1015.22
2022-10-05T03:43:36.886Z,1015.25
2022-10-05T03:44:36.854Z,1015.26
2022-10-05T03:45:36.864Z,1015.24
2022-10-05T03:46:36.900Z,1015.23
2022-10-05T03:47:36.831Z,1015.24
2022-10-05T03:48:36.836Z,1015.10
2022-10-05T03:49:36.796Z,1015.23
2022-10-05T03:50:36.818Z,1015.24
2022-10-05T03:51:36.774Z,1015.17
2022-10-05T03:52:36.774Z,1015.28
2022-10-05T03:53:36.751Z,1015.26
2022-10-05T03:54:36.724Z,1015.16
2022-10-05T03:55:36.725Z,1015.18
2022-10-05T03:56:36.726Z,1015.13
2022-10-05T03:57:36.687Z,1015.16
2022-10-05T03:58:36.677Z,1015.10
2022-10-05T03:59:36.664Z,1015.16
2022-10-05T04:00:36.660Z,1015.11
2022-10-05T04:01:36.751Z,1015.14
2022-10-05T04:02:36.672Z,1015.12
2022-10-05T04:03:36.614Z,1015.06
2022-10-05T04:04:36.611Z,1015.04
2022-10-05T04:05:36.596Z,1015.06
2022-10-05T04:06:36.597Z,1015.05
2022-10-05T04:07:36.585Z,1015.02
2022-10-05T04:08:36.575Z,1015.03
2022-10-05T04:09:36.546Z,1015.03
2022-10-05T04:10:36.519Z,1015.00
2022-10-05T04:11:36.522Z,1014.94
2022-10-05T04:12:36.495Z,1014.97
2022-10-05T04:13:36.487Z,1014.98
2022-10-05T04:14:36.469Z,1014.92
2022-10-05T04:15:36.501Z,1014.93
2022-10-05T04:16:36.475Z,1014.89
2022-10-05T04:17:36.419Z,1014.85
2022-10-05T04:18:36.421Z,1014.88
2022-10-05T04:19:36.424Z,1014.82
2022-10-05T04:20:36.400Z,1014.83
2022-10-05T04:21:36.383Z,1014.86
2022-10-05T04:22:36.373Z,1014.87
2022-10-05T04:23:36.339Z,1014.82
2022-10-05T04:24:36.356Z,1014.88
2022-10-05T04:25:36.334Z,1014.89
2022-10-05T04:26:36.309Z,1014.85
2022-10-05T04:27:36.320Z,1014.89
2022-10-05T04:28:36.338Z,1014.88
2022-10-05T04:29:36.305Z,1014.92
2022-10-05T04:30:36.257Z,1014.91
2022-10-05T04:31:36.319Z,1014.92
2022-10-05T04:32:36.244Z,1014.97
2022-10-05T04:33:36.223Z,1014.88
2022-10-05T04:34:36.212Z,1014.95
2022-10-05T04:35:36.189Z,1014.93
2022-10-05T04:36:36.170Z,1014.85
2022-10-05T04:37:36.180Z,1014.92
2022-10-05T04:38:36.173Z,1014.91
2022-10-05T04:39:36.151Z,1014.88
2022-10-05T04:40:36.133Z,1014.93
2022-10-05T04:41:36.109Z,1014.97
2022-10-05T04:42:36.117Z,1014.96
2022-10-05T04:43:36.075Z,1014.98
2022-10-05T04:44:36.075Z,1014.96
2022-10-05T04:45:36.072Z,1014.91
2022-10-05T04:46:36.062Z,1015.00
2022-10-05T04:47:36.027Z,1015.00
2022-10-05T04:48:36.018Z,1014.98
2022-10-05T04:49:36.034Z,1015.02
2022-10-05T04:50:35.988Z,1014.98
2022-10-05T04:51:35.987Z,1014.99
2022-10-05T04:52:35.980Z,1014.98
2022-10-05T04:53:35.989Z,1015.00
2022-10-05T04:54:35.936Z,1015.00
2022-10-05T04:55:35.919Z,1015.01
2022-10-05T04:56:35.916Z,1015.01
2022-10-05T04:57:35.918Z,1014.96
2022-10-05T04:58:40.037Z,1015.02
2022-10-05T04:59:36.856Z,1015.01
2022-10-05T05:00:35.912Z,1014.99
2022-10-05T05:01:35.839Z,1014.96
2022-10-05T05:02:35.828Z,1014.97
2022-10-05T05:03:35.878Z,1014.98
2022-10-05T05:04:35.796Z,1015.00
2022-10-05T05:05:35.868Z,1014.97
2022-10-05T05:06:35.790Z,1014.99
2022-10-05T05:07:35.786Z,1014.95
2022-10-05T05:08:35.746Z,1014.94
2022-10-05T05:09:35.745Z,1014.96
2022-10-05T05:10:35.743Z,1014.98
2022-10-05T05:11:35.720Z,1015.05
2022-10-05T05:12:35.708Z,1015.00
2022-10-05T05:13:35.692Z,1014.95
2022-10-05T05:14:35.697Z,1015.00
2022-10-05T05:15:35.666Z,1015.05
2022-10-05T05:16:35.730Z,1015.02
2022-10-05T05:17:35.661Z,1015.01
2022-10-05T05:18:35.670Z,1014.97
2022-10-05T05:19:35.650Z,1014.95
2022-10-05T05:20:35.591Z,1014.95
2022-10-05T05:21:35.573Z,1014.98
2022-10-05T05:22:35.581Z,1014.99
2022-10-05T05:23:35.601Z,1014.92
2022-10-05T05:24:35.566Z,1014.89
2022-10-05T05:25:35.538Z,1014.95
2022-10-05T05:26:38.861Z,1014.93
2022-10-05T05:27:36.513Z,1014.94
2022-10-05T05:28:35.565Z,1015.01
2022-10-05T05:29:35.504Z,1014.94
2022-10-05T05:30:35.461Z,1014.91
2022-10-05T05:31:35.573Z,1014.93
2022-10-05T05:32:35.454Z,1014.90
2022-10-05T05:33:35.426Z,1014.95
2022-10-05T05:34:35.425Z,1014.96
2022-10-05T05:35:35.420Z,1014.99
2022-10-05T05:36:35.382Z,1014.95
2022-10-05T05:37:35.362Z,1014.98
2022-10-05T05:38:35.376Z,1014.98
2022-10-05T05:39:35.353Z,1014.95
2022-10-05T05:40:35.341Z,1014.99
2022-10-05T05:41:35.324Z,1014.98
2022-10-05T05:42:35.319Z,1014.95
2022-10-05T05:43:35.313Z,1014.89
2022-10-05T05:44:38.550Z,1014.92
2022-10-05T05:45:35.269Z,1014.94
2022-10-05T05:47:01.763Z,1014.92
2022-10-05T05:47:36.270Z,1014.94
2022-10-05T05:48:35.221Z,1014.96
2022-10-05T05:49:35.207Z,1014.95
2022-10-05T05:50:35.212Z,1014.95
2022-10-05T05:51:35.192Z,1014.94
2022-10-05T05:52:35.183Z,1014.96
2022-10-05T05:53:35.156Z,1014.92
2022-10-05T05:54:35.152Z,1014.98
2022-10-05T05:55:35.133Z,1014.93
2022-10-05T05:56:35.149Z,1014.92
2022-10-05T05:57:35.098Z,1015.00
2022-10-05T05:58:35.107Z,1014.99
2022-10-05T05:59:35.101Z,1014.97
2022-10-05T06:00:35.082Z,1014.96
2022-10-05T06:01:35.093Z,1014.95
2022-10-05T06:02:35.222Z,1014.91
2022-10-05T06:03:35.020Z,1014.99
2022-10-05T06:04:35.092Z,1014.95
2022-10-05T06:05:34.987Z,1015.03
2022-10-05T06:06:35.039Z,1014.95
2022-10-05T06:07:34.980Z,1015.00
2022-10-05T06:08:34.965Z,1015.03
2022-10-05T06:09:34.937Z,1015.05
2022-10-05T06:10:34.935Z,1015.08
2022-10-05T06:11:34.940Z,1015.06
2022-10-05T06:12:34.921Z,1015.06
2022-10-05T06:13:34.914Z,1015.04
2022-10-05T06:14:34.896Z,1015.01
2022-10-05T06:15:34.874Z,1015.02
2022-10-05T06:16:34.892Z,1015.07
2022-10-05T06:17:34.851Z,1015.02
2022-10-05T06:18:34.826Z,1015.09
2022-10-05T06:19:34.838Z,1015.03
2022-10-05T06:20:34.882Z,1015.06
2022-10-05T06:21:34.807Z,1015.07
2022-10-05T06:22:34.782Z,1015.08
2022-10-05T06:23:34.768Z,1015.09
2022-10-05T06:24:34.759Z,1015.08
2022-10-05T06:25:34.757Z,1014.99
2022-10-05T06:27:31.800Z,1015.00
2022-10-05T06:28:31.927Z,1014.99
2022-10-05T06:29:31.742Z,1015.02
2022-10-05T06:30:31.744Z,1015.01
2022-10-05T06:31:31.843Z,1015.00
2022-10-05T06:32:31.707Z,1015.02
2022-10-05T06:33:31.695Z,1015.02
2022-10-05T06:34:31.678Z,1015.03
2022-10-05T06:35:31.671Z,1015.05
2022-10-05T06:36:31.656Z,1015.04
2022-10-05T06:37:31.675Z,1015.03
2022-10-05T06:38:31.620Z,1015.06
2022-10-05T06:39:31.611Z,1015.02
2022-10-05T06:40:31.600Z,1014.93
2022-10-05T06:41:31.594Z,1014.94
2022-10-05T06:42:31.589Z,1014.97
2022-10-05T06:43:31.575Z,1015.00
2022-10-05T06:44:31.555Z,1015.01
2022-10-05T06:45:31.591Z,1014.90
2022-10-05T06:46:31.536Z,1014.93
2022-10-05T06:47:31.541Z,1015.01
2022-10-05T06:48:31.523Z,1015.00
2022-10-05T06:49:31.500Z,1014.97
2022-10-05T06:50:31.507Z,1014.97
2022-10-05T06:51:31.485Z,1014.90
2022-10-05T06:52:31.469Z,1014.94
2022-10-05T06:53:31.511Z,1014.93
2022-10-05T06:54:31.429Z,1014.91
2022-10-05T06:55:31.502Z,1014.92
2022-10-05T06:56:32.348Z,1014.92
2022-10-05T06:57:31.418Z,1014.97
2022-10-05T06:58:32.212Z,1014.94
2022-10-05T06:59:31.389Z,1014.92
2022-10-05T07:00:31.357Z,1015.03
2022-10-05T07:01:31.428Z,1014.93
2022-10-05T07:02:31.413Z,1015.00
2022-10-05T07:03:31.327Z,1014.98
2022-10-05T07:04:36.606Z,1014.97
2022-10-05T07:05:32.311Z,1014.91
2022-10-05T07:06:31.388Z,1014.93
2022-10-05T07:07:31.267Z,1014.98
2022-10-05T07:08:31.262Z,1014.96
2022-10-05T07:09:31.229Z,1014.96
2022-10-05T07:10:31.219Z,1014.95
2022-10-05T07:11:31.198Z,1014.87
2022-10-05T07:12:31.226Z,1014.91
2022-10-05T07:13:31.248Z,1014.90
2022-10-05T07:14:32.121Z,1014.98
2022-10-05T07:15:31.181Z,1014.91
2022-10-05T07:16:31.217Z,1014.96
2022-10-05T07:17:31.168Z,1014.87
2022-10-05T07:18:31.472Z,1014.90
2022-10-05T07:19:31.106Z,1014.93
2022-10-05T07:20:31.166Z,1014.93
2022-10-05T07:21:31.086Z,1014.95
2022-10-05T07:22:33.425Z,1014.94
2022-10-05T07:23:31.069Z,1014.90
2022-10-05T07:24:31.065Z,1014.89
2022-10-05T07:25:31.037Z,1014.98
2022-10-05T07:26:31.027Z,1014.90
2022-10-05T07:27:31.018Z,1014.93
2022-10-05T07:28:31.299Z,1014.92
2022-10-05T07:29:30.988Z,1014.88
2022-10-05T07:30:31.029Z,1014.89
2022-10-05T07:31:30.968Z,1014.94
2022-10-05T07:32:30.945Z,1014.90
2022-10-05T07:33:30.958Z,1014.94
2022-10-05T07:34:30.969Z,1015.02
2022-10-05T07:35:30.911Z,1015.03
2022-10-05T07:36:30.884Z,1015.02
2022-10-05T07:37:30.897Z,1014.99
2022-10-05T07:38:30.896Z,1015.02
2022-10-05T07:39:55.399Z,1015.00
2022-10-05T07:40:31.893Z,1014.98
2022-10-05T07:41:30.834Z,1015.05
2022-10-05T07:42:31.753Z,1014.97
2022-10-05T07:43:45.282Z,1015.02
2022-10-05T07:44:31.817Z,1015.03
2022-10-05T07:45:30.911Z,1015.00
2022-10-05T07:46:31.556Z,1015.03
2022-10-05T07:47:30.758Z,1014.98
2022-10-05T07:48:30.747Z,1015.01
2022-10-05T07:49:30.716Z,1014.98
2022-10-05T07:50:30.724Z,1015.02
2022-10-05T07:51:30.716Z,1015.08
2022-10-05T07:52:34.511Z,1015.03
2022-10-05T07:53:30.696Z,1015.03
2022-10-05T07:54:30.661Z,1015.03
2022-10-05T07:55:30.655Z,1015.08
2022-10-05T07:56:31.386Z,1015.09
2022-10-05T07:57:30.634Z,1015.08
2022-10-05T07:58:30.634Z,1015.11
2022-10-05T07:59:30.604Z,1015.08
2022-10-05T08:00:30.601Z,1015.06
2022-10-05T08:01:30.656Z,1015.08
2022-10-05T08:02:30.613Z,1015.14
2022-10-05T08:03:30.553Z,1015.10
2022-10-05T08:04:30.553Z,1015.04
2022-10-05T08:05:30.511Z,1015.13
2022-10-05T08:06:30.583Z,1015.08
2022-10-05T08:07:30.524Z,1015.08
2022-10-05T08:08:30.543Z,1015.09
2022-10-05T08:09:30.662Z,1015.15
2022-10-05T08:10:30.458Z,1015.14
2022-10-05T08:11:30.450Z,1015.19
2022-10-05T08:12:30.429Z,1015.08
2022-10-05T08:13:30.416Z,1015.11
2022-10-05T08:14:30.410Z,1015.11
2022-10-05T08:15:30.399Z,1015.13
2022-10-05T08:16:30.449Z,1015.18
2022-10-05T08:17:30.374Z,1015.08
2022-10-05T08:18:30.380Z,1015.14
2022-10-05T08:19:30.379Z,1015.12
2022-10-05T08:20:30.340Z,1015.14
2022-10-05T08:21:30.308Z,1015.15
2022-10-05T08:22:30.436Z,1015.16
2022-10-05T08:23:30.351Z,1015.15
2022-10-05T08:24:30.342Z,1015.15
2022-10-05T08:25:30.297Z,1015.15
2022-10-05T08:26:30.255Z,1015.18
2022-10-05T08:27:30.343Z,1015.15
2022-10-05T08:28:30.329Z,1015.13
2022-10-05T08:29:30.215Z,1015.13
2022-10-05T08:30:30.224Z,1015.14
2022-10-05T08:31:30.327Z,1015.12
2022-10-05T08:32:30.181Z,1015.12
2022-10-05T08:33:30.267Z,1015.20
2022-10-05T08:34:30.184Z,1015.15
2022-10-05T08:35:30.127Z,1015.13
2022-10-05T08:36:30.136Z,1015.18
2022-10-05T08:37:30.118Z,1015.18
2022-10-05T08:38:30.103Z,1015.14
2022-10-05T08:39:30.166Z,1015.21
2022-10-05T08:40:30.107Z,1015.14
2022-10-05T08:41:30.060Z,1015.13
2022-10-05T08:42:30.065Z,1015.16
2022-10-05T08:43:35.031Z,1015.06
2022-10-05T08:44:31.039Z,1015.07
2022-10-05T08:45:30.080Z,1015.03
2022-10-05T08:46:30.058Z,1015.02
2022-10-05T08:47:30.028Z,1015.06
2022-10-05T08:48:30.021Z,1015.07
2022-10-05T08:49:34.856Z,1015.05
2022-10-05T08:50:30.954Z,1015.06
2022-10-05T08:51:30.070Z,1015.01
2022-10-05T08:52:29.986Z,1015.01
2022-10-05T08:53:29.918Z,1015.03
2022-10-05T08:54:29.958Z,1014.99
2022-10-05T08:55:29.872Z,1015.01
2022-10-05T08:56:29.870Z,1015.09
2022-10-05T08:57:29.919Z,1015.03
2022-10-05T08:58:29.848Z,1015.03
2022-10-05T08:59:29.845Z,1015.07
2022-10-05T09:00:29.822Z,1015.05
2022-10-05T09:01:29.906Z,1015.05
2022-10-05T09:02:29.839Z,1015.07
2022-10-05T09:03:34.220Z,1015.07
2022-10-05T09:04:30.779Z,1015.07
2022-10-05T09:05:29.753Z,1015.04
2022-10-05T09:06:29.745Z,1015.02
2022-10-05T09:07:29.729Z,1015.05
2022-10-05T09:08:29.816Z,1015.07
2022-10-05T09:09:29.701Z,1014.97
2022-10-05T09:10:29.687Z,1014.94
2022-10-05T09:11:29.677Z,1014.93
2022-10-05T09:12:30.420Z,1014.97
2022-10-05T09:13:29.643Z,1014.95
2022-10-05T09:14:29.671Z,1014.92
2022-10-05T09:15:29.613Z,1014.86
2022-10-05T09:16:29.626Z,1014.86
2022-10-05T09:17:29.597Z,1014.89
2022-10-05T09:18:29.572Z,1014.88
2022-10-05T09:19:29.602Z,1014.92
2022-10-05T09:20:29.542Z,1014.92
2022-10-05T09:21:29.585Z,1014.94
2022-10-05T09:22:29.532Z,1014.95
2022-10-05T09:23:29.515Z,1014.97
2022-10-05T09:24:29.739Z,1015.00
2022-10-05T09:25:29.525Z,1014.97
2022-10-05T09:26:29.484Z,1014.97
2022-10-05T09:27:29.501Z,1014.94
2022-10-05T09:28:29.562Z,1015.04
2022-10-05T09:29:29.440Z,1014.93
2022-10-05T09:30:29.441Z,1014.92
2022-10-05T09:31:29.478Z,1014.94
2022-10-05T09:32:29.442Z,1014.92
2022-10-05T09:33:29.393Z,1014.89
2022-10-05T09:34:29.379Z,1014.90
2022-10-05T09:35:29.374Z,1014.92
2022-10-05T09:36:29.352Z,1014.89
2022-10-05T09:37:29.360Z,1014.87
2022-10-05T09:38:29.344Z,1014.83
2022-10-05T09:39:29.349Z,1014.78
2022-10-05T09:40:30.250Z,1014.83
2022-10-05T09:41:29.309Z,1014.78
2022-10-05T09:42:29.283Z,1014.77
2022-10-05T09:43:29.265Z,1014.74
2022-10-05T09:44:29.259Z,1014.73
2022-10-05T09:45:29.221Z,1014.67
2022-10-05T09:46:29.351Z,1014.70
2022-10-05T09:47:29.204Z,1014.69
2022-10-05T09:48:29.199Z,1014.65
2022-10-05T09:49:29.198Z,1014.68
2022-10-05T09:50:30.020Z,1014.64
2022-10-05T09:51:29.159Z,1014.70
2022-10-05T09:52:29.138Z,1014.64
2022-10-05T09:53:29.139Z,1014.72
2022-10-05T09:54:29.143Z,1014.68
2022-10-05T09:55:29.091Z,1014.65
2022-10-05T09:57:29.067Z,1014.59
2022-10-05T09:58:29.079Z,1014.64
2022-10-05T09:59:29.047Z,1014.58
2022-10-05T10:00:29.099Z,1014.58
2022-10-05T10:01:33.607Z,1014.58
2022-10-05T10:02:30.095Z,1014.53
2022-10-05T10:03:29.086Z,1014.61
2022-10-05T10:04:29.029Z,1014.62
2022-10-05T10:05:28.982Z,1014.61
2022-10-05T10:06:29.705Z,1014.57
2022-10-05T10:07:29.071Z,1014.63
2022-10-05T10:08:28.952Z,1014.64
2022-10-05T10:09:28.926Z,1014.57
2022-10-05T10:10:28.918Z,1014.61
2022-10-05T10:11:28.899Z,1014.56
2022-10-05T10:12:28.893Z,1014.49
2022-10-05T10:13:28.879Z,1014.55
2022-10-05T10:14:28.866Z,1014.51
2022-10-05T10:15:28.849Z,1014.57
2022-10-05T10:16:28.862Z,1014.55
2022-10-05T10:17:28.806Z,1014.57
2022-10-05T10:18:28.810Z,1014.57
2022-10-05T10:19:28.823Z,1014.59
2022-10-05T10:20:28.801Z,1014.60
2022-10-05T10:21:28.752Z,1014.55
2022-10-05T10:22:28.775Z,1014.56
2022-10-05T10:23:28.755Z,1014.60
2022-10-05T10:24:28.734Z,1014.57
2022-10-05T10:25:28.761Z,1014.63
2022-10-05T10:26:28.715Z,1014.56
2022-10-05T10:27:28.707Z,1014.55
2022-10-05T10:28:28.753Z,1014.54
2022-10-05T10:29:28.676Z,1014.59
2022-10-05T10:30:30.173Z,1014.60
2022-10-05T10:31:28.668Z,1014.59
2022-10-05T10:32:28.615Z,1014.56
2022-10-05T10:33:28.595Z,1014.60
2022-10-05T10:34:28.617Z,1014.51
2022-10-05T10:36:28.624Z,1014.52
2022-10-05T10:37:28.605Z,1014.47
2022-10-05T10:38:28.537Z,1014.48
2022-10-05T10:39:28.551Z,1014.48
2022-10-05T10:40:28.539Z,1014.46
2022-10-05T10:41:28.494Z,1014.40
2022-10-05T10:42:28.613Z,1014.38
2022-10-05T10:43:28.503Z,1014.36
2022-10-05T10:44:28.527Z,1014.34
2022-10-05T10:45:28.506Z,1014.29
2022-10-05T10:46:28.504Z,1014.29
2022-10-05T10:47:28.434Z,1014.26
2022-10-05T10:48:28.423Z,1014.26
2022-10-05T10:49:28.431Z,1014.21
2022-10-05T10:50:28.413Z,1014.29
2022-10-05T10:51:28.372Z,1014.23
2022-10-05T10:52:28.367Z,1014.28
2022-10-05T10:53:28.449Z,1014.23
2022-10-05T10:54:28.333Z,1014.26
2022-10-05T10:55:28.355Z,1014.29
2022-10-05T10:56:28.321Z,1014.24
2022-10-05T10:57:28.292Z,1014.17
2022-10-05T10:58:28.297Z,1014.24
2022-10-05T10:59:30.831Z,1014.17
2022-10-05T11:00:29.024Z,1014.13
2022-10-05T11:01:28.326Z,1014.13
2022-10-05T11:02:28.306Z,1014.06
2022-10-05T11:03:28.295Z,1014.01
2022-10-05T11:04:28.202Z,1014.05
2022-10-05T11:05:28.219Z,1013.99
2022-10-05T11:06:28.304Z,1014.07
2022-10-05T11:07:28.162Z,1014.00
2022-10-05T11:08:28.161Z,1014.02
2022-10-05T11:09:28.154Z,1013.96
2022-10-05T11:10:28.157Z,1013.94
2022-10-05T11:11:29.071Z,1013.89
2022-10-05T11:12:32.073Z,1013.87
2022-10-05T11:13:29.101Z,1013.90
2022-10-05T11:14:28.094Z,1013.95
2022-10-05T11:15:28.828Z,1013.90
2022-10-05T11:16:28.060Z,1013.81
2022-10-05T11:17:28.068Z,1013.81
2022-10-05T11:18:28.018Z,1013.83
2022-10-05T11:19:39.874Z,1013.72
2022-10-05T11:20:29.033Z,1013.72
2022-10-05T11:21:28.004Z,1013.70
2022-10-05T11:22:27.992Z,1013.75
2022-10-05T11:23:27.988Z,1013.72
2022-10-05T11:24:27.938Z,1013.69
2022-10-05T11:25:27.993Z,1013.67
2022-10-05T11:26:27.953Z,1013.64
2022-10-05T11:27:27.910Z,1013.60
2022-10-05T11:28:27.941Z,1013.58
2022-10-05T11:29:27.907Z,1013.59
2022-10-05T11:30:27.890Z,1013.56
2022-10-05T11:31:27.962Z,1013.61
2022-10-05T11:32:27.863Z,1013.56
2022-10-05T11:33:27.842Z,1013.47
2022-10-05T11:34:27.841Z,1013.48
2022-10-05T11:35:27.810Z,1013.51
2022-10-05T11:36:27.821Z,1013.42
2022-10-05T11:37:27.791Z,1013.40
2022-10-05T11:38:27.826Z,1013.44
2022-10-05T11:39:27.777Z,1013.46
2022-10-05T11:40:27.737Z,1013.38
2022-10-05T11:41:27.739Z,1013.33
2022-10-05T11:42:27.743Z,1013.32
2022-10-05T11:43:27.740Z,1013.27
2022-10-05T11:44:27.897Z,1013.28
2022-10-05T11:45:27.693Z,1013.25
2022-10-05T11:46:27.771Z,1013.23
2022-10-05T11:47:27.647Z,1013.20
2022-10-05T11:48:27.654Z,1013.16
2022-10-05T11:49:27.635Z,1013.16
2022-10-05T11:50:28.333Z,1013.15
2022-10-05T11:51:28.832Z,1013.14
2022-10-05T11:52:27.683Z,1013.11
2022-10-05T11:53:27.576Z,1013.08
2022-10-05T11:54:27.585Z,1013.01
2022-10-05T11:55:27.556Z,1013.04
2022-10-05T11:56:27.678Z,1013.04
2022-10-05T11:57:27.552Z,1012.98
2022-10-05T11:58:27.510Z,1012.92
2022-10-05T11:59:27.551Z,1012.91
2022-10-05T12:00:27.488Z,1012.94
2022-10-05T12:01:27.486Z,1012.93
2022-10-05T12:02:27.490Z,1012.81
2022-10-05T12:03:27.573Z,1012.80
2022-10-05T12:04:27.425Z,1012.81
2022-10-05T12:05:27.565Z,1012.79
2022-10-05T12:06:27.449Z,1012.79
2022-10-05T12:07:27.410Z,1012.78
2022-10-05T12:08:27.398Z,1012.73
2022-10-05T12:09:27.390Z,1012.72